createdAt,value
2023-03-08T00:00:21.164Z,94083.44
2023-03-08T00:02:50.216Z,94082.56
2023-03-08T00:05:21.484Z,94086.56
2023-03-08T00:07:50.614Z,94089.28
2023-03-08T00:10:20.686Z,94090.56
2023-03-08T00:12:49.904Z,94091.47
2023-03-08T00:15:20.031Z,94093.75
2023-03-08T00:17:49.216Z,94097.75
2023-03-08T00:20:18.271Z,94097.19
2023-03-08T00:22:49.347Z,94097.41
2023-03-08T00:25:18.523Z,94094.66
2023-03-08T00:27:47.611Z,94091.31
2023-03-08T00:30:17.112Z,94094.41
2023-03-08T00:32:46.330Z,94088.91
2023-03-08T00:35:15.647Z,94083.41
2023-03-08T00:37:49.289Z,94087.31
2023-03-08T00:40:18.957Z,94095.53
2023-03-08T00:42:47.985Z,94086.16
2023-03-08T00:45:17.246Z,94084.84
2023-03-08T00:47:46.495Z,94088.66
2023-03-08T00:50:15.648Z,94088.81
2023-03-08T00:52:49.283Z,94079.00
2023-03-08T00:55:18.415Z,94085.75
2023-03-08T00:57:49.226Z,94089.94
2023-03-08T01:00:19.299Z,94090.19
2023-03-08T01:02:48.509Z,94090.19
2023-03-08T01:05:17.514Z,94089.94
2023-03-08T01:07:46.570Z,94096.69
2023-03-08T01:10:17.449Z,94087.44
2023-03-08T01:12:46.442Z,94088.81
2023-03-08T01:15:16.304Z,94098.63
2023-03-08T01:17:45.316Z,94090.22
2023-03-08T01:20:14.943Z,94094.56
2023-03-08T01:22:43.920Z,94095.72
2023-03-08T01:25:13.410Z,94090.91
2023-03-08T01:27:44.076Z,94092.06
2023-03-08T01:30:13.850Z,94102.56
2023-03-08T01:32:43.631Z,94100.72
2023-03-08T01:35:12.928Z,94094.06
2023-03-08T01:37:42.613Z,94099.72
2023-03-08T01:40:18.702Z,94097.72
2023-03-08T01:42:49.308Z,94093.50
2023-03-08T01:45:54.089Z,94105.22
2023-03-08T01:48:31.963Z,94093.22
2023-03-08T01:51:06.423Z,94097.47
2023-03-08T01:53:38.970Z,94095.06
2023-03-08T01:56:10.666Z,94093.34
2023-03-08T01:58:43.433Z,94092.06
2023-03-08T02:01:13.044Z,94076.00
2023-03-08T02:03:42.432Z,94082.47
2023-03-08T02:06:12.300Z,94074.47
2023-03-08T02:08:42.632Z,94082.34
2023-03-08T02:11:15.608Z,94082.78
2023-03-08T02:13:46.588Z,94070.44
2023-03-08T02:16:18.070Z,94073.84
2023-03-08T02:18:55.735Z,94088.13
2023-03-08T02:21:26.440Z,94089.13
2023-03-08T02:23:57.126Z,94086.88
2023-03-08T02:26:26.976Z,94100.22
2023-03-08T02:28:56.508Z,94096.88
2023-03-08T02:31:25.617Z,94085.31
2023-03-08T02:33:54.850Z,94080.63
2023-03-08T02:36:23.898Z,94090.25
2023-03-08T02:38:53.022Z,94086.63
2023-03-08T02:41:23.661Z,94090.72
2023-03-08T02:43:52.862Z,94092.31
2023-03-08T02:46:21.880Z,94098.81
2023-03-08T02:48:53.075Z,94093.56
2023-03-08T02:51:23.548Z,94097.56
2023-03-08T02:53:52.683Z,94100.41
2023-03-08T02:56:23.316Z,94109.66
2023-03-08T02:58:55.558Z,94104.41
2023-03-08T03:01:26.224Z,94110.69
2023-03-08T03:03:56.626Z,94112.22
2023-03-08T03:06:25.830Z,94109.28
2023-03-08T03:08:58.055Z,94112.94
2023-03-08T03:11:29.697Z,94113.16
2023-03-08T03:14:00.532Z,94111.41
2023-03-08T03:16:35.770Z,94113.81
2023-03-08T03:19:05.051Z,94111.53
2023-03-08T03:21:34.560Z,94117.97
2023-03-08T03:24:03.705Z,94115.06
2023-03-08T03:26:42.637Z,94123.44
2023-03-08T03:29:12.209Z,94119.13
2023-03-08T03:31:44.665Z,94124.53
2023-03-08T03:34:14.777Z,94119.06
2023-03-08T03:36:46.445Z,94116.78
2023-03-08T03:39:16.370Z,94127.19
2023-03-08T03:41:49.154Z,94127.66
2023-03-08T03:44:19.333Z,94119.78
2023-03-08T03:46:50.952Z,94127.66
2023-03-08T03:49:25.628Z,94130.03
2023-03-08T03:51:54.819Z,94131.78
2023-03-08T03:54:33.708Z,94133.44
2023-03-08T03:57:04.287Z,94130.25
2023-03-08T03:59:38.578Z,94141.75
2023-03-08T04:02:08.803Z,94130.38
2023-03-08T04:04:46.421Z,94134.66
2023-03-08T04:07:18.374Z,94126.03
2023-03-08T04:09:56.664Z,94131.97
2023-03-08T04:12:27.513Z,94143.50
2023-03-08T04:14:57.980Z,94131.66
2023-03-08T04:17:33.636Z,94143.16
2023-03-08T04:20:04.576Z,94148.50
2023-03-08T04:22:38.288Z,94151.53
2023-03-08T04:25:18.444Z,94135.31
2023-03-08T04:27:56.580Z,94141.44
2023-03-08T04:30:25.995Z,94140.63
2023-03-08T04:32:57.243Z,94135.81
2023-03-08T04:35:33.278Z,94139.50
2023-03-08T04:38:03.042Z,94140.50
2023-03-08T04:40:32.478Z,94140.34
2023-03-08T04:43:07.080Z,94137.69
2023-03-08T04:45:40.373Z,94127.00
2023-03-08T04:48:15.379Z,94136.59
2023-03-08T04:50:45.582Z,94133.94
2023-03-08T04:53:15.619Z,94144.16
2023-03-08T04:55:44.926Z,94142.72
2023-03-08T04:58:15.528Z,94149.72
2023-03-08T05:00:44.794Z,94146.91
2023-03-08T05:03:14.244Z,94155.69
2023-03-08T05:05:48.506Z,94159.47
2023-03-08T05:08:18.425Z,94164.22
2023-03-08T05:10:51.695Z,94169.56
2023-03-08T05:13:22.590Z,94178.31
2023-03-08T05:15:52.379Z,94164.81
2023-03-08T05:18:21.785Z,94172.28
2023-03-08T05:20:56.565Z,94175.31
2023-03-08T05:23:28.506Z,94179.13
2023-03-08T05:26:00.232Z,94179.22
2023-03-08T05:28:33.121Z,94188.81
2023-03-08T05:31:03.516Z,94193.38
2023-03-08T05:33:34.453Z,94190.66
2023-03-08T05:36:04.069Z,94200.00
2023-03-08T05:38:33.978Z,94201.59
2023-03-08T05:41:08.942Z,94202.09
2023-03-08T05:43:40.893Z,94199.81
2023-03-08T05:46:14.480Z,94201.88
2023-03-08T05:48:44.921Z,94196.13
2023-03-08T05:51:17.734Z,94200.88
2023-03-08T05:53:48.158Z,94202.53
2023-03-08T05:56:21.110Z,94202.09
2023-03-08T05:59:18.187Z,94212.72
2023-03-08T06:01:49.200Z,94218.81
2023-03-08T06:04:26.244Z,94218.53
2023-03-08T06:06:56.705Z,94235.16
2023-03-08T06:09:31.285Z,94231.09
2023-03-08T06:12:01.320Z,94231.38
2023-03-08T06:14:33.328Z,94235.84
2023-03-08T06:17:03.478Z,94247.50
2023-03-08T06:19:36.207Z,94252.00
2023-03-08T06:22:05.237Z,94257.06
2023-03-08T06:24:35.005Z,94251.00
2023-03-08T06:27:08.044Z,94251.34
2023-03-08T06:29:40.127Z,94258.31
2023-03-08T06:32:09.706Z,94253.25
2023-03-08T06:34:41.877Z,94250.59
2023-03-08T06:37:11.062Z,94257.97
2023-03-08T06:39:40.556Z,94258.03
2023-03-08T06:42:09.810Z,94260.47
2023-03-08T06:44:40.500Z,94263.63
2023-03-08T06:47:09.765Z,94269.78
2023-03-08T06:49:40.082Z,94272.31
2023-03-08T06:52:09.410Z,94268.03
2023-03-08T06:54:39.847Z,94276.25
2023-03-08T06:57:08.964Z,94269.00
2023-03-08T06:59:42.448Z,94281.03
2023-03-08T07:02:12.225Z,94286.78
2023-03-08T07:04:41.514Z,94295.88
2023-03-08T07:07:10.689Z,94296.84
2023-03-08T07:09:40.092Z,94289.25
2023-03-08T07:12:09.788Z,94282.66
2023-03-08T07:14:39.027Z,94289.19
2023-03-08T07:17:09.590Z,94286.09
2023-03-08T07:19:39.651Z,94291.84
2023-03-08T07:22:13.141Z,94290.25
2023-03-08T07:24:42.284Z,94279.53
2023-03-08T07:27:13.697Z,94279.78
2023-03-08T07:29:42.845Z,94285.50
2023-03-08T07:32:13.477Z,94277.34
2023-03-08T07:34:43.545Z,94284.75
2023-03-08T07:37:14.002Z,94295.28
2023-03-08T07:39:43.766Z,94287.78
2023-03-08T07:42:13.565Z,94286.47
2023-03-08T07:44:48.879Z,94280.50
2023-03-08T07:47:19.432Z,94285.34
2023-03-08T07:49:49.172Z,94286.88
2023-03-08T07:52:18.925Z,94300.50
2023-03-08T07:54:48.224Z,94293.94
2023-03-08T07:57:18.061Z,94300.81
2023-03-08T07:59:47.950Z,94295.78
2023-03-08T08:02:18.515Z,94300.16
2023-03-08T08:04:47.918Z,94297.41
2023-03-08T08:07:18.031Z,94308.03
2023-03-08T08:09:47.933Z,94292.03
2023-03-08T08:12:17.210Z,94302.22
2023-03-08T08:14:46.514Z,94302.59
2023-03-08T08:17:16.634Z,94302.91
2023-03-08T08:19:48.073Z,94310.22
2023-03-08T08:22:17.163Z,94307.50
2023-03-08T08:24:46.324Z,94313.09
2023-03-08T08:27:16.035Z,94309.44
2023-03-08T08:29:46.442Z,94311.19
2023-03-08T08:32:15.702Z,94309.94
2023-03-08T08:34:45.011Z,94311.44
2023-03-08T08:37:15.542Z,94321.22
2023-03-08T08:39:44.636Z,94312.00
2023-03-08T08:42:13.786Z,94322.03
2023-03-08T08:44:42.965Z,94321.53
2023-03-08T08:47:12.145Z,94316.75
2023-03-08T08:49:41.843Z,94317.59
2023-03-08T08:52:10.993Z,94318.66
2023-03-08T08:54:41.777Z,94305.19
2023-03-08T08:57:10.979Z,94300.69
2023-03-08T08:59:40.324Z,94302.53
2023-03-08T09:02:13.787Z,94304.19
2023-03-08T09:04:43.035Z,94308.41
2023-03-08T09:07:12.152Z,94312.66
2023-03-08T09:09:42.753Z,94313.25
2023-03-08T09:12:11.916Z,94321.75
2023-03-08T09:14:40.988Z,94307.16
2023-03-08T09:17:10.159Z,94306.84
2023-03-08T09:19:41.280Z,94309.31
2023-03-08T09:22:11.786Z,94307.09
2023-03-08T09:24:42.404Z,94300.81
2023-03-08T09:27:11.811Z,94308.06
2023-03-08T09:29:41.053Z,94301.19
2023-03-08T09:32:10.274Z,94300.47
2023-03-08T09:34:39.695Z,94300.13
2023-03-08T09:37:08.791Z,94309.75
2023-03-08T09:39:38.828Z,94303.72
2023-03-08T09:42:20.955Z,94299.59
2023-03-08T09:45:00.042Z,94299.09
2023-03-08T09:47:36.896Z,94291.97
2023-03-08T09:50:17.686Z,94299.13
2023-03-08T09:52:52.324Z,94295.75
2023-03-08T09:55:30.662Z,94296.88
2023-03-08T09:58:03.568Z,94299.78
2023-03-08T10:00:35.876Z,94288.00
2023-03-08T10:04:01.339Z,94302.88
2023-03-08T10:06:37.474Z,94294.47
2023-03-08T10:09:18.616Z,94300.34
2023-03-08T10:11:55.754Z,94301.19
2023-03-08T10:14:29.347Z,94302.25
2023-03-08T10:17:01.214Z,94303.88
2023-03-08T10:19:34.810Z,94302.31
2023-03-08T10:22:11.003Z,94292.28
2023-03-08T10:24:47.042Z,94289.44
2023-03-08T10:27:22.026Z,94291.06
2023-03-08T10:29:55.134Z,94287.41
2023-03-08T10:32:25.504Z,94282.69
2023-03-08T10:34:56.011Z,94285.66
2023-03-08T10:37:33.042Z,94289.38
2023-03-08T10:40:06.151Z,94286.09
2023-03-08T10:42:36.847Z,94280.44
2023-03-08T10:45:16.443Z,94277.38
2023-03-08T10:47:56.245Z,94278.38
2023-03-08T10:50:27.927Z,94277.56
2023-03-08T10:52:57.314Z,94260.59
2023-03-08T10:55:31.697Z,94253.09
2023-03-08T10:58:02.756Z,94251.19
2023-03-08T11:00:38.600Z,94257.97
2023-03-08T11:03:16.236Z,94251.56
2023-03-08T11:05:56.757Z,94246.56
2023-03-08T11:08:28.669Z,94244.75
2023-03-08T11:11:06.563Z,94234.47
2023-03-08T11:13:37.659Z,94231.44
2023-03-08T11:16:35.811Z,94226.28
2023-03-08T11:19:12.224Z,94220.00
2023-03-08T11:21:52.631Z,94212.16
2023-03-08T11:24:43.842Z,94210.81
2023-03-08T11:27:25.700Z,94214.63
2023-03-08T11:30:09.204Z,94216.72
2023-03-08T11:32:53.332Z,94202.31
2023-03-08T11:35:29.532Z,94197.09
2023-03-08T11:38:05.119Z,94196.25
2023-03-08T11:40:43.940Z,94197.03
2023-03-08T11:43:26.878Z,94186.78
2023-03-08T11:46:03.930Z,94173.91
2023-03-08T11:49:11.121Z,94167.66
2023-03-08T11:51:49.953Z,94168.69
2023-03-08T11:54:31.032Z,94170.91
2023-03-08T11:57:02.442Z,94173.47
2023-03-08T11:59:35.573Z,94167.34
2023-03-08T12:02:11.362Z,94168.03
2023-03-08T12:04:47.733Z,94172.19
2023-03-08T12:07:23.727Z,94169.19
2023-03-08T12:10:00.472Z,94173.63
2023-03-08T12:12:33.406Z,94167.31
2023-03-08T12:15:09.334Z,94170.91
2023-03-08T12:17:45.845Z,94175.34
2023-03-08T12:20:20.497Z,94165.75
2023-03-08T12:22:56.226Z,94162.56
2023-03-08T12:25:29.916Z,94160.13
2023-03-08T12:28:06.553Z,94166.16
2023-03-08T12:43:34.903Z,94150.25
2023-03-08T12:46:06.441Z,94150.22
2023-03-08T12:48:37.875Z,94134.97
2023-03-08T12:51:21.193Z,94135.41
2023-03-08T12:53:58.251Z,94135.69
2023-03-08T12:56:32.576Z,94136.34
2023-03-08T12:59:05.274Z,94136.19
2023-03-08T13:01:40.331Z,94136.53
2023-03-08T13:04:40.528Z,94127.25
2023-03-08T13:07:28.573Z,94133.06
2023-03-08T13:10:04.702Z,94126.81
2023-03-08T13:12:43.637Z,94123.88
2023-03-08T13:15:27.996Z,94128.63
2023-03-08T13:18:06.382Z,94137.72
2023-03-08T13:20:54.000Z,94130.41
2023-03-08T13:23:29.507Z,94131.44
2023-03-08T13:26:31.374Z,94135.84
2023-03-08T13:29:12.770Z,94130.50
2023-03-08T13:31:46.150Z,94132.44
2023-03-08T13:34:31.015Z,94129.59
2023-03-08T13:37:00.328Z,94125.59
2023-03-08T13:39:30.683Z,94118.59
2023-03-08T13:42:10.628Z,94126.94
2023-03-08T13:44:40.175Z,94115.34
2023-03-08T13:47:22.841Z,94121.84
2023-03-08T13:49:53.522Z,94118.47
2023-03-08T13:52:24.909Z,94117.69
2023-03-08T13:54:56.647Z,94109.03
2023-03-08T13:57:28.585Z,94117.31
2023-03-08T13:59:59.975Z,94128.78
2023-03-08T14:02:32.794Z,94115.81
2023-03-08T14:05:01.896Z,94120.38
2023-03-08T14:07:33.571Z,94119.84
2023-03-08T14:10:02.654Z,94128.38
2023-03-08T14:12:35.151Z,94123.59
2023-03-08T14:15:06.502Z,94131.59
2023-03-08T14:17:38.059Z,94121.28
2023-03-08T14:20:20.470Z,94123.25
2023-03-08T14:22:52.295Z,94122.47
2023-03-08T14:25:28.369Z,94116.34
2023-03-08T14:27:57.968Z,94117.78
2023-03-08T14:30:28.492Z,94120.50
2023-03-08T14:33:28.365Z,94116.75
2023-03-08T14:36:06.487Z,94119.78
2023-03-08T14:38:36.183Z,94124.16
2023-03-08T14:41:07.596Z,94122.88
2023-03-08T14:43:36.812Z,94133.16
2023-03-08T14:46:07.871Z,94129.75
2023-03-08T14:48:39.522Z,94125.41
2023-03-08T14:51:27.379Z,94134.69
2023-03-08T14:54:01.588Z,94136.81
2023-03-08T14:56:32.029Z,94133.66
2023-03-08T14:59:04.060Z,94135.16
2023-03-08T15:01:35.811Z,94130.09
2023-03-08T15:04:19.300Z,94137.69
2023-03-08T15:06:49.181Z,94137.50
2023-03-08T15:09:20.046Z,94126.09
2023-03-08T15:11:52.403Z,94140.78
2023-03-08T15:14:21.410Z,94134.50
2023-03-08T15:16:51.359Z,94130.78
2023-03-08T15:19:22.266Z,94130.19
2023-03-08T15:21:51.548Z,94134.63
2023-03-08T15:24:21.060Z,94136.97
2023-03-08T15:26:53.258Z,94129.97
2023-03-08T15:29:27.952Z,94126.94
2023-03-08T15:31:57.729Z,94128.59
2023-03-08T15:34:28.663Z,94117.84
2023-03-08T15:37:00.888Z,94116.00
2023-03-08T15:39:30.153Z,94117.34
2023-03-08T15:42:00.105Z,94123.25
2023-03-08T15:44:29.119Z,94113.97
2023-03-08T15:47:01.896Z,94111.13
2023-03-08T15:49:32.617Z,94121.06
2023-03-08T15:52:01.659Z,94124.34
2023-03-08T15:54:32.175Z,94107.91
2023-03-08T15:57:01.193Z,94100.00
2023-03-08T15:59:30.149Z,94092.06
2023-03-08T16:01:59.444Z,94103.78
2023-03-08T16:04:28.553Z,94090.03
2023-03-08T16:06:59.179Z,94095.13
2023-03-08T16:09:28.387Z,94102.06
2023-03-08T16:11:57.325Z,94098.94
2023-03-08T16:14:26.322Z,94092.59
2023-03-08T16:16:55.394Z,94100.03
2023-03-08T16:19:24.826Z,94108.03
2023-03-08T16:21:54.017Z,94102.50
2023-03-08T16:24:24.461Z,94113.16
2023-03-08T16:26:53.578Z,94109.97
2023-03-08T16:29:23.187Z,94112.88
2023-03-08T16:31:52.295Z,94119.84
2023-03-08T16:34:22.272Z,94123.03
2023-03-08T16:36:51.385Z,94126.78
2023-03-08T16:39:20.576Z,94128.66
2023-03-08T16:41:51.312Z,94133.44
2023-03-08T16:44:21.964Z,94130.53
2023-03-08T16:46:51.442Z,94135.06
2023-03-08T16:49:23.050Z,94136.63
2023-03-08T16:51:52.058Z,94138.78
2023-03-08T16:54:21.129Z,94132.66
2023-03-08T16:56:52.121Z,94140.34
2023-03-08T16:59:21.271Z,94143.75
2023-03-08T17:01:50.438Z,94140.03
2023-03-08T17:04:19.831Z,94138.72
2023-03-08T17:06:49.131Z,94144.22
2023-03-08T17:09:18.332Z,94148.16
2023-03-08T17:11:50.348Z,94157.59
2023-03-08T17:14:22.482Z,94151.78
2023-03-08T17:16:52.135Z,94165.72
2023-03-08T17:19:21.675Z,94171.81
2023-03-08T17:21:51.481Z,94182.91
2023-03-08T17:24:21.966Z,94192.66
2023-03-08T17:26:53.257Z,94199.09
2023-03-08T17:29:24.608Z,94202.53
2023-03-08T17:31:54.894Z,94207.03
2023-03-08T17:34:24.414Z,94225.06
2023-03-08T17:36:53.795Z,94214.72
2023-03-08T17:39:23.706Z,94218.19
2023-03-08T17:41:52.817Z,94212.66
2023-03-08T17:44:23.391Z,94213.41
2023-03-08T17:46:52.652Z,94215.25
2023-03-08T17:49:25.244Z,94217.91
2023-03-08T17:51:55.217Z,94227.94
2023-03-08T17:54:24.361Z,94239.81
2023-03-08T17:56:53.620Z,94233.13
2023-03-08T17:59:24.280Z,94242.66
2023-03-08T18:01:53.389Z,94225.50
2023-03-08T18:04:23.738Z,94234.09
2023-03-08T18:06:52.858Z,94242.84
2023-03-08T18:09:22.247Z,94237.28
2023-03-08T18:11:51.625Z,94237.28
2023-03-08T18:14:26.210Z,94237.88
2023-03-08T18:17:05.731Z,94236.06
2023-03-08T18:19:35.016Z,94235.81
2023-03-08T18:22:05.372Z,94230.78
2023-03-08T18:24:35.134Z,94233.16
2023-03-08T18:27:05.965Z,94245.56
2023-03-08T18:29:36.101Z,94244.25
2023-03-08T18:32:08.942Z,94241.88
2023-03-08T18:34:39.603Z,94230.66
2023-03-08T18:37:09.116Z,94239.94
2023-03-08T18:39:38.537Z,94233.84
2023-03-08T18:42:08.072Z,94239.19
2023-03-08T18:44:38.849Z,94243.16
2023-03-08T18:47:10.418Z,94240.00
2023-03-08T18:49:41.951Z,94234.69
2023-03-08T18:52:11.948Z,94240.25
2023-03-08T18:54:41.720Z,94240.78
2023-03-08T18:57:10.908Z,94238.41
2023-03-08T18:59:40.149Z,94253.44
2023-03-08T19:02:12.803Z,94248.91
2023-03-08T19:04:44.235Z,94258.91
2023-03-08T19:07:14.402Z,94258.09
2023-03-08T19:09:46.162Z,94273.16
2023-03-08T19:12:16.004Z,94262.25
2023-03-08T19:14:46.948Z,94267.72
2023-03-08T19:17:17.686Z,94273.78
2023-03-08T19:19:48.024Z,94276.66
2023-03-08T19:22:17.396Z,94270.47
2023-03-08T19:24:47.339Z,94269.38
2023-03-08T19:27:16.473Z,94269.84
2023-03-08T19:29:45.784Z,94274.22
2023-03-08T19:32:16.240Z,94269.53
2023-03-08T19:34:48.706Z,94279.03
2023-03-08T19:37:18.069Z,94279.53
2023-03-08T19:39:47.946Z,94281.06
2023-03-08T19:42:18.046Z,94291.91
2023-03-08T19:44:48.840Z,94294.72
2023-03-08T19:47:20.367Z,94294.41
2023-03-08T19:49:51.085Z,94293.78
2023-03-08T19:52:20.200Z,94299.03
2023-03-08T19:54:49.309Z,94295.00
2023-03-08T19:57:18.470Z,94294.38
2023-03-08T19:59:47.845Z,94308.66
2023-03-08T20:02:16.986Z,94305.81
2023-03-08T20:04:46.379Z,94320.88
2023-03-08T20:07:16.849Z,94316.97
2023-03-08T20:09:46.000Z,94324.13
2023-03-08T20:12:15.048Z,94321.25
2023-03-08T20:14:45.925Z,94318.38
2023-03-08T20:17:15.031Z,94320.47
2023-03-08T20:19:44.359Z,94318.56
2023-03-08T20:22:13.462Z,94316.72
2023-03-08T20:24:43.830Z,94316.47
2023-03-08T20:27:12.802Z,94309.03
2023-03-08T20:29:42.002Z,94315.13
2023-03-08T20:32:11.147Z,94311.78
2023-03-08T20:34:40.274Z,94319.63
2023-03-08T20:37:09.498Z,94322.03
2023-03-08T20:39:38.543Z,94321.22
2023-03-08T20:42:09.106Z,94323.31
2023-03-08T20:44:38.211Z,94316.13
2023-03-08T20:47:07.596Z,94321.97
2023-03-08T20:49:36.542Z,94316.69
2023-03-08T20:52:06.974Z,94313.41
2023-03-08T20:54:36.355Z,94315.81
2023-03-08T20:57:06.138Z,94309.72
2023-03-08T20:59:37.523Z,94306.22
2023-03-08T21:02:06.880Z,94310.47
2023-03-08T21:04:35.963Z,94308.59
2023-03-08T21:07:07.420Z,94311.78
2023-03-08T21:09:36.652Z,94307.16
2023-03-08T21:12:09.337Z,94316.31
2023-03-08T21:14:39.863Z,94327.28
2023-03-08T21:17:09.060Z,94324.78
2023-03-08T21:19:38.561Z,94322.56
2023-03-08T21:22:07.660Z,94318.22
2023-03-08T21:24:36.773Z,94316.59
2023-03-08T21:27:05.930Z,94313.09
2023-03-08T21:29:34.946Z,94321.50
2023-03-08T21:32:05.748Z,94315.66
2023-03-08T21:34:34.730Z,94305.25
2023-03-08T21:37:03.763Z,94295.91
2023-03-08T21:39:32.941Z,94295.81
2023-03-08T21:42:01.882Z,94302.59
2023-03-08T21:44:32.152Z,94309.97
2023-03-08T21:47:01.348Z,94301.94
2023-03-08T21:49:34.586Z,94305.41
2023-03-08T21:52:04.780Z,94307.84
2023-03-08T21:54:33.867Z,94309.84
2023-03-08T21:57:02.968Z,94316.28
2023-03-08T21:59:32.060Z,94318.41
2023-03-08T22:02:01.181Z,94327.56
2023-03-08T22:04:31.833Z,94321.63
2023-03-08T22:07:01.053Z,94316.91
2023-03-08T22:09:30.051Z,94324.03
2023-03-08T22:11:59.591Z,94314.84
2023-03-08T22:14:29.866Z,94301.34
2023-03-08T22:17:00.875Z,94307.75
2023-03-08T22:19:29.895Z,94302.84
2023-03-08T22:22:01.081Z,94308.94
2023-03-08T22:24:32.286Z,94299.06
2023-03-08T22:27:03.539Z,94301.13
2023-03-08T22:29:33.980Z,94299.53
2023-03-08T22:32:03.005Z,94296.91
2023-03-08T22:34:32.091Z,94302.31
2023-03-08T22:37:02.656Z,94306.19
2023-03-08T22:39:31.754Z,94298.28
2023-03-08T22:42:01.003Z,94298.22
2023-03-08T22:44:30.155Z,94294.78
2023-03-08T22:46:59.286Z,94299.78
2023-03-08T22:49:28.577Z,94290.41
2023-03-08T22:51:57.650Z,94297.25
2023-03-08T22:54:28.993Z,94286.72
2023-03-08T22:56:58.257Z,94280.44
2023-03-08T22:59:27.368Z,94288.47
2023-03-08T23:01:56.769Z,94292.47
2023-03-08T23:04:25.909Z,94295.09
2023-03-08T23:06:54.991Z,94295.22
2023-03-08T23:09:24.175Z,94289.00
2023-03-08T23:11:54.640Z,94291.09
2023-03-08T23:14:23.637Z,94294.44
2023-03-08T23:16:53.136Z,94291.94
2023-03-08T23:19:23.577Z,94299.06
2023-03-08T23:21:52.770Z,94305.56
2023-03-08T23:24:22.046Z,94302.13
2023-03-08T23:26:51.168Z,94309.59
2023-03-08T23:29:21.552Z,94302.59
2023-03-08T23:31:50.593Z,94295.94
2023-03-08T23:34:19.510Z,94298.56
2023-03-08T23:36:48.481Z,94306.59
2023-03-08T23:39:17.407Z,94307.53
2023-03-08T23:41:46.628Z,94299.84
2023-03-08T23:44:15.547Z,94301.91
2023-03-08T23:46:46.830Z,94311.41
2023-03-08T23:49:17.172Z,94307.16
2023-03-08T23:51:46.956Z,94301.19
2023-03-08T23:54:15.981Z,94298.47
2023-03-08T23:56:45.242Z,94294.66
2023-03-08T23:59:17.927Z,94293.63
